createdAt,value
2023-02-01T00:01:00.924Z,99.36
2023-02-01T00:04:28.779Z,99.05
2023-02-01T00:07:55.780Z,98.63
2023-02-01T00:11:23.086Z,98.52
2023-02-01T00:14:50.204Z,98.46
2023-02-01T00:18:17.260Z,98.08
2023-02-01T00:21:45.618Z,97.99
2023-02-01T00:25:13.150Z,97.93
2023-02-01T00:28:40.087Z,97.61
2023-02-01T00:32:07.740Z,97.47
2023-02-01T00:35:35.724Z,97.19
2023-02-01T00:39:03.457Z,97.06
2023-02-01T00:42:31.249Z,97.02
2023-02-01T00:45:58.240Z,96.83
2023-02-01T00:49:25.315Z,96.73
2023-02-01T00:52:53.804Z,96.76
2023-02-01T00:56:21.490Z,96.92
2023-02-01T00:59:48.490Z,96.79
2023-02-01T01:03:19.698Z,96.65
2023-02-01T01:06:46.672Z,96.62
2023-02-01T01:10:14.466Z,96.69
2023-02-01T01:13:42.075Z,96.64
2023-02-01T01:17:09.313Z,96.80
2023-02-01T01:20:38.720Z,96.67
2023-02-01T01:24:06.605Z,96.19
2023-02-01T01:27:33.940Z,95.86
2023-02-01T01:31:01.060Z,95.59
2023-02-01T01:34:28.506Z,95.62
2023-02-01T01:37:56.111Z,95.34
2023-02-01T01:41:26.000Z,95.02
2023-02-01T01:45:06.681Z,95.16
2023-02-01T01:48:34.687Z,95.10
2023-02-01T01:52:05.531Z,95.18
2023-02-01T01:55:39.320Z,95.13
2023-02-01T01:59:07.676Z,94.90
2023-02-01T02:02:36.139Z,94.57
2023-02-01T02:06:14.967Z,94.33
2023-02-01T02:09:54.639Z,93.77
2023-02-01T02:13:27.843Z,93.24
2023-02-01T02:17:07.379Z,93.56
2023-02-01T02:21:02.118Z,93.30
2023-02-01T02:25:05.893Z,93.18
2023-02-01T02:29:06.530Z,92.86
2023-02-01T02:32:59.884Z,92.87
2023-02-01T02:36:40.271Z,92.81
2023-02-01T02:40:15.908Z,92.84
2023-02-01T02:44:07.378Z,92.66
2023-02-01T02:47:40.513Z,92.17
2023-02-01T02:51:29.423Z,92.40
2023-02-01T02:54:59.534Z,91.97
2023-02-01T02:58:44.482Z,91.62
2023-02-01T03:02:29.803Z,91.64
2023-02-01T03:05:58.099Z,91.38
2023-02-01T03:09:33.180Z,91.39
2023-02-01T03:13:07.330Z,91.42
2023-02-01T03:16:38.659Z,91.52
2023-02-01T03:20:09.199Z,91.53
2023-02-01T03:23:40.570Z,91.72
2023-02-01T03:27:12.027Z,91.68
2023-02-01T03:30:43.948Z,91.90
2023-02-01T03:34:12.445Z,91.91
2023-02-01T03:37:40.824Z,92.04
2023-02-01T03:41:14.714Z,92.15
2023-02-01T03:44:48.949Z,92.48
2023-02-01T03:48:18.950Z,92.48
2023-02-01T03:51:45.989Z,92.71
2023-02-01T03:55:15.141Z,92.86
2023-02-01T03:58:41.092Z,92.54
2023-02-01T04:02:08.356Z,92.09
2023-02-01T04:05:35.976Z,92.05
2023-02-01T04:09:05.611Z,91.80
2023-02-01T04:12:33.133Z,91.78
2023-02-01T04:16:00.157Z,91.70
2023-02-01T04:19:27.535Z,91.54
2023-02-01T04:22:54.723Z,91.19
2023-02-01T04:26:22.430Z,91.10
2023-02-01T04:29:50.672Z,90.83
2023-02-01T04:33:17.836Z,90.99
2023-02-01T04:36:47.220Z,90.87
2023-02-01T04:40:13.755Z,90.89
2023-02-01T04:43:40.793Z,90.51
2023-02-01T04:47:08.251Z,90.66
2023-02-01T04:50:35.843Z,90.73
2023-02-01T04:54:02.872Z,90.29
2023-02-01T04:57:30.183Z,90.37
2023-02-01T05:00:58.129Z,90.37
2023-02-01T05:04:25.403Z,90.29
2023-02-01T05:07:52.734Z,90.69
2023-02-01T05:11:33.610Z,90.53
2023-02-01T05:15:00.795Z,90.80
2023-02-01T05:18:28.115Z,90.59
2023-02-01T05:21:55.185Z,90.36
2023-02-01T05:25:22.385Z,90.43
2023-02-01T05:28:49.756Z,90.28
2023-02-01T05:32:22.578Z,89.91
2023-02-01T05:35:52.706Z,89.54
2023-02-01T05:39:18.353Z,89.39
2023-02-01T05:42:45.395Z,89.44
2023-02-01T05:46:13.819Z,89.18
2023-02-01T05:49:41.235Z,88.88
2023-02-01T05:53:08.465Z,88.85
2023-02-01T05:56:35.594Z,88.89
2023-02-01T06:00:02.750Z,89.03
2023-02-01T06:03:40.174Z,89.05
2023-02-01T06:07:08.736Z,89.08
2023-02-01T06:10:35.853Z,89.28
2023-02-01T06:14:03.159Z,89.27
2023-02-01T06:17:30.387Z,89.36
2023-02-01T06:21:01.009Z,89.71
2023-02-01T06:24:28.963Z,89.74
2023-02-01T06:27:56.205Z,89.90
2023-02-01T06:31:24.443Z,90.01
2023-02-01T06:34:53.512Z,90.25
2023-02-01T06:38:20.574Z,90.31
2023-02-01T06:41:50.215Z,90.17
2023-02-01T06:45:16.238Z,90.30
2023-02-01T06:48:43.771Z,90.19
2023-02-01T06:52:10.943Z,90.32
2023-02-01T06:55:37.970Z,90.39
2023-02-01T06:59:07.300Z,90.57
2023-02-01T07:02:34.572Z,90.80
2023-02-01T07:06:01.865Z,90.90
2023-02-01T07:09:29.317Z,91.14
2023-02-01T07:13:00.688Z,91.38
2023-02-01T07:16:28.006Z,91.64
2023-02-01T07:19:55.127Z,91.82
2023-02-01T07:23:22.145Z,92.05
2023-02-01T07:26:52.128Z,92.07
2023-02-01T07:30:20.567Z,92.15
2023-02-01T07:33:48.051Z,92.16
2023-02-01T07:37:15.293Z,92.26
2023-02-01T07:40:42.374Z,92.10
2023-02-01T07:44:09.612Z,92.14
2023-02-01T07:47:36.699Z,92.01
2023-02-01T07:51:06.049Z,91.96
2023-02-01T07:54:33.259Z,91.84
2023-02-01T07:58:02.024Z,91.80
2023-02-01T08:01:30.866Z,91.75
2023-02-01T08:04:57.889Z,91.57
2023-02-01T08:08:25.513Z,91.29
2023-02-01T08:11:52.715Z,91.30
2023-02-01T08:15:20.252Z,91.42
2023-02-01T08:18:47.957Z,91.10
2023-02-01T08:22:14.903Z,91.04
2023-02-01T08:25:41.913Z,90.70
2023-02-01T08:29:11.527Z,90.35
2023-02-01T08:32:41.278Z,90.15
2023-02-01T08:36:10.247Z,90.06
2023-02-01T08:39:37.817Z,89.87
2023-02-01T08:43:05.030Z,89.60
2023-02-01T08:46:32.178Z,88.99
2023-02-01T08:49:59.282Z,88.80
2023-02-01T08:53:26.557Z,89.33
2023-02-01T08:56:55.510Z,88.48
2023-02-01T09:00:23.655Z,88.00
2023-02-01T09:03:50.981Z,88.11
2023-02-01T09:07:18.800Z,87.86
2023-02-01T09:10:46.109Z,87.88
2023-02-01T09:14:13.407Z,88.16
2023-02-01T09:17:42.782Z,88.13
2023-02-01T09:21:10.235Z,88.54
2023-02-01T09:24:37.445Z,88.78
2023-02-01T09:28:07.186Z,88.82
2023-02-01T09:31:34.595Z,89.01
2023-02-01T09:35:02.023Z,89.33
2023-02-01T09:38:29.697Z,89.68
2023-02-01T09:42:06.739Z,89.99
2023-02-01T09:45:39.997Z,90.65
2023-02-01T09:49:13.410Z,90.72
2023-02-01T09:52:45.213Z,90.92
2023-02-01T09:56:17.249Z,91.40
2023-02-01T09:59:48.196Z,91.71
2023-02-01T10:03:16.773Z,92.18
2023-02-01T10:07:05.549Z,92.59
2023-02-01T10:10:42.960Z,93.11
2023-02-01T10:14:17.694Z,93.13
2023-02-01T10:17:59.135Z,93.20
2023-02-01T10:21:42.577Z,93.53
2023-02-01T10:25:16.591Z,93.55
2023-02-01T10:28:46.384Z,93.60
2023-02-01T10:32:19.299Z,93.51
2023-02-01T10:35:48.444Z,93.58
2023-02-01T10:39:17.215Z,93.19
2023-02-01T10:42:45.482Z,93.45
2023-02-01T10:46:12.925Z,93.35
2023-02-01T10:49:46.094Z,93.68
2023-02-01T10:53:19.239Z,93.74
2023-02-01T10:56:47.852Z,94.18
2023-02-01T11:00:25.032Z,94.11
2023-02-01T11:03:57.950Z,94.00
2023-02-01T11:07:28.166Z,94.33
2023-02-01T11:11:02.444Z,94.44
2023-02-01T11:14:40.426Z,94.04
2023-02-01T11:18:20.275Z,93.95
2023-02-01T11:21:51.616Z,94.17
2023-02-01T11:25:20.757Z,93.64
2023-02-01T11:28:55.542Z,93.62
2023-02-01T11:32:25.245Z,93.70
2023-02-01T11:35:54.027Z,93.91
2023-02-01T11:39:28.495Z,93.91
2023-02-01T11:43:00.728Z,94.24
2023-02-01T11:46:32.790Z,94.31
2023-02-01T11:50:01.858Z,94.39
2023-02-01T11:53:42.075Z,94.76
2023-02-01T11:57:24.704Z,94.53
2023-02-01T12:01:05.552Z,94.72
2023-02-01T12:04:56.149Z,94.66
2023-02-01T12:08:51.276Z,94.38
2023-02-01T12:12:23.718Z,94.22
2023-02-01T12:16:02.921Z,94.57
2023-02-01T12:19:44.458Z,94.26
2023-02-01T12:23:26.538Z,94.24
2023-02-01T12:27:09.561Z,94.19
2023-02-01T12:31:09.374Z,93.91
2023-02-01T12:34:56.889Z,94.29
2023-02-01T12:38:51.500Z,94.51
2023-02-01T12:42:23.619Z,94.55
2023-02-01T12:45:55.764Z,94.60
2023-02-01T12:49:31.109Z,94.90
2023-02-01T12:53:09.401Z,94.02
2023-02-01T12:56:43.372Z,94.18
2023-02-01T13:00:23.387Z,93.89
2023-02-01T13:04:01.125Z,93.82
2023-02-01T13:07:31.490Z,93.88
2023-02-01T13:11:05.890Z,93.38
2023-02-01T13:14:40.961Z,93.11
2023-02-01T13:18:15.589Z,93.03
2023-02-01T13:21:48.334Z,92.33
2023-02-01T13:25:19.811Z,91.93
2023-02-01T13:28:52.364Z,91.46
2023-02-01T13:33:50.183Z,91.55
2023-02-01T13:36:36.990Z,91.78
2023-02-01T13:40:20.207Z,91.20
2023-02-01T13:43:51.045Z,90.73
2023-02-01T13:47:26.281Z,91.28
2023-02-01T13:50:58.431Z,91.23
2023-02-01T13:54:32.279Z,90.40
2023-02-01T13:58:21.292Z,89.22
2023-02-01T14:01:48.373Z,88.53
2023-02-01T14:05:37.513Z,88.30
2023-02-01T14:09:38.204Z,88.57
2023-02-01T14:13:28.765Z,89.31
2023-02-01T14:17:41.230Z,89.01
2023-02-01T14:21:24.126Z,88.93
2023-02-01T14:24:56.412Z,88.84
2023-02-01T14:28:28.727Z,88.88
2023-02-01T14:32:19.052Z,88.69
2023-02-01T14:35:58.038Z,88.36
2023-02-01T14:39:38.496Z,87.91
2023-02-01T14:43:05.684Z,87.70
2023-02-01T14:47:03.243Z,88.11
2023-02-01T14:50:37.891Z,88.15
2023-02-01T14:54:05.765Z,88.90
2023-02-01T14:57:35.608Z,88.94
2023-02-01T15:01:07.677Z,89.77
2023-02-01T15:04:45.045Z,89.89
2023-02-01T15:08:30.723Z,90.29
2023-02-01T15:12:07.529Z,90.96
2023-02-01T15:15:37.476Z,91.33
2023-02-01T15:19:16.399Z,91.70
2023-02-01T15:22:44.115Z,91.87
2023-02-01T15:26:11.016Z,91.77
2023-02-01T15:29:38.191Z,91.96
2023-02-01T15:33:18.322Z,91.94
2023-02-01T15:37:00.695Z,92.06
2023-02-01T15:40:31.922Z,91.91
2023-02-01T15:44:16.080Z,91.77
2023-02-01T15:47:47.222Z,91.85
2023-02-01T15:51:20.714Z,91.78
2023-02-01T15:54:53.595Z,91.74
2023-02-01T15:58:23.260Z,91.83
2023-02-01T16:01:51.306Z,92.09
2023-02-01T16:05:34.567Z,92.05
2023-02-01T16:09:14.021Z,92.29
2023-02-01T16:12:50.648Z,92.79
2023-02-01T16:16:18.338Z,93.20
2023-02-01T16:19:45.726Z,93.49
2023-02-01T16:23:13.697Z,93.51
2023-02-01T16:26:40.724Z,93.83
2023-02-01T16:30:10.941Z,94.11
2023-02-01T16:33:38.080Z,94.18
2023-02-01T16:37:06.562Z,94.90
2023-02-01T16:40:33.583Z,95.24
2023-02-01T16:44:00.624Z,95.32
2023-02-01T16:47:27.812Z,96.40
2023-02-01T16:50:57.592Z,96.61
2023-02-01T16:54:23.215Z,96.55
2023-02-01T16:57:50.572Z,96.24
2023-02-01T17:01:20.515Z,96.13
2023-02-01T17:04:49.847Z,96.12
2023-02-01T17:08:20.629Z,96.13
2023-02-01T17:11:47.684Z,96.05
2023-02-01T17:15:15.915Z,95.93
2023-02-01T17:18:43.231Z,96.15
2023-02-01T17:22:11.781Z,96.14
2023-02-01T17:25:39.191Z,96.35
2023-02-01T17:29:06.478Z,96.35
2023-02-01T17:32:33.547Z,96.27
2023-02-01T17:36:01.459Z,96.09
2023-02-01T17:39:46.715Z,96.16
2023-02-01T17:43:22.956Z,96.28
2023-02-01T17:46:50.195Z,96.42
2023-02-01T17:50:18.344Z,96.16
2023-02-01T17:53:46.675Z,96.28
2023-02-01T17:57:15.985Z,96.40
2023-02-01T18:00:44.107Z,96.58
2023-02-01T18:04:15.118Z,96.40
2023-02-01T18:07:42.186Z,96.16
2023-02-01T18:11:15.436Z,96.37
2023-02-01T18:14:42.529Z,96.48
2023-02-01T18:18:09.976Z,96.65
2023-02-01T18:21:43.681Z,96.41
2023-02-01T18:25:20.709Z,96.53
2023-02-01T18:28:48.391Z,96.49
2023-02-01T18:32:15.878Z,96.40
2023-02-01T18:35:44.533Z,96.09
2023-02-01T18:39:12.361Z,96.18
2023-02-01T18:42:40.312Z,96.01
2023-02-01T18:46:08.384Z,96.12
2023-02-01T18:49:36.883Z,96.19
2023-02-01T18:53:06.771Z,96.10
2023-02-01T18:56:33.886Z,96.12
2023-02-01T19:00:00.913Z,96.67
2023-02-01T19:03:28.825Z,97.02
2023-02-01T19:06:56.250Z,97.71
2023-02-01T19:10:25.631Z,98.20
2023-02-01T19:13:55.436Z,98.04
2023-02-01T19:17:23.418Z,97.87
2023-02-01T19:20:54.641Z,98.00
2023-02-01T19:24:23.641Z,98.24
2023-02-01T19:27:53.235Z,98.12
2023-02-01T19:31:20.716Z,98.54
2023-02-01T19:34:48.900Z,98.54
2023-02-01T19:38:16.933Z,98.83
2023-02-01T19:41:44.506Z,98.87
2023-02-01T19:45:13.034Z,98.81
2023-02-01T19:48:40.572Z,98.91
2023-02-01T19:52:08.393Z,98.92
2023-02-01T19:55:36.392Z,99.58
2023-02-01T19:59:05.072Z,99.65
2023-02-01T20:02:32.138Z,99.75
2023-02-01T20:06:03.086Z,99.57
2023-02-01T20:09:34.207Z,99.27
2023-02-01T20:13:02.238Z,99.45
2023-02-01T20:16:30.873Z,99.46
2023-02-01T20:20:03.701Z,99.29
2023-02-01T20:23:33.198Z,99.17
2023-02-01T20:27:02.746Z,99.10
2023-02-01T20:30:32.397Z,99.19
2023-02-01T20:34:02.154Z,99.13
2023-02-01T20:37:31.870Z,99.23
2023-02-01T20:41:07.965Z,99.04
2023-02-01T20:44:37.116Z,99.32
2023-02-01T20:48:07.115Z,99.31
2023-02-01T20:51:36.626Z,99.40
2023-02-01T20:55:05.253Z,99.42
2023-02-01T20:58:34.135Z,99.43
2023-02-01T21:02:02.639Z,99.61
2023-02-01T21:05:40.095Z,99.90
2023-02-01T21:09:07.615Z,99.93
2023-02-01T21:12:34.936Z,99.84
2023-02-01T21:16:03.336Z,100.00
2023-02-01T21:19:43.130Z,99.90
2023-02-01T21:23:11.088Z,99.95
2023-02-01T21:26:42.105Z,99.91
2023-02-01T21:30:11.804Z,99.81
2023-02-01T21:33:39.294Z,100.00
2023-02-01T21:37:07.132Z,99.99
2023-02-01T21:40:35.008Z,99.95
2023-02-01T21:44:02.524Z,100.00
2023-02-01T21:47:29.964Z,99.95
2023-02-01T21:50:58.319Z,99.93
2023-02-01T21:54:26.057Z,99.95
2023-02-01T21:57:53.247Z,99.81
2023-02-01T22:01:20.508Z,99.86
2023-02-01T22:04:49.077Z,99.81
2023-02-01T22:08:16.257Z,99.73
2023-02-01T22:11:43.234Z,99.66
2023-02-01T22:15:11.836Z,99.57
2023-02-01T22:18:38.811Z,99.59
2023-02-01T22:22:05.833Z,99.47
2023-02-01T22:25:33.921Z,99.44
2023-02-01T22:29:00.875Z,99.24
2023-02-01T22:32:28.526Z,99.32
2023-02-01T22:35:56.095Z,99.23
2023-02-01T22:39:24.500Z,99.25
2023-02-01T22:42:51.652Z,99.25
2023-02-01T22:46:31.394Z,99.08
2023-02-01T22:50:09.712Z,98.97
2023-02-01T22:53:36.872Z,98.89
2023-02-01T22:57:04.225Z,98.79
2023-02-01T23:00:40.262Z,98.73
2023-02-01T23:04:11.266Z,98.65
2023-02-01T23:07:40.945Z,98.65
2023-02-01T23:11:10.832Z,98.49
2023-02-01T23:14:58.573Z,98.38
2023-02-01T23:18:26.110Z,98.41
2023-02-01T23:21:53.430Z,98.15
2023-02-01T23:25:21.960Z,98.05
2023-02-01T23:28:50.827Z,97.89
2023-02-01T23:32:18.580Z,97.76
2023-02-01T23:35:55.004Z,97.60
2023-02-01T23:39:22.212Z,97.54
2023-02-01T23:43:09.722Z,97.34
2023-02-01T23:46:40.308Z,97.26
2023-02-01T23:50:08.719Z,97.20
2023-02-01T23:53:35.903Z,97.07
2023-02-01T23:57:02.995Z,97.18
